Pays
Station

 

Conditions  météo  pour  Kingston/Norman Manley  -  Jamaïque    Jamaïque

  
28 °C
    
 
 

METAR pour Kingston/Norman Manley :

MKJP 202300Z 13018KT 9999 FEW020 28/21 Q1017

 

Voici le bulletin pour Kingston/Norman Manley - Jamaïque.
 
Le bulletin a été fait il y a 9 minutes, à 23:00 UTC .
Le vent soufflait à la vitesse de 9.3 mètres par seconde de Sud-est (130°).
 
La température était de 28 °C, avec un point de rosée à 21 °C.
La température ressentie était de 30 °C.
 
La pression atmosphérique était de 1017 hPa.
L'humidité relative était de 65.8%.
 
Il y avait 1 à 2/8ème de nébulosité à une hauteur de 610 mètres.
 
La visibilité globale était de supérieure à 10 kilomètres.
 

 
 
 

Pays :   A   B   C   D   E   F   G   H   I   J   K   L   M   N   O   P   Q   R   S   T   U   V   W   Y   Z

 

Partenaires :  Info Météo avec Met'info
Météo Marine avec MeteoMarine.net
Infos Site  |  Infos Légales  |  Crédits  |  Confidentialité
Contactez-nous  |  Ajouter aux favoris
© 2013-2018 METAR - Tous droits réservés